Fairhaven, Washington
Current Conditions -  °F | °C
As of 1:53 AM on Sunday 25 Jan 2015 (Local Time) from KBLI Reporting Station
Overcast Overcast  
Wind Chill: 12°   Ceiling: 3200
Heat Index: 12°   Visibility: 10mi
Dew Point: 11°   Wind: 3mph
Humidity: 93%   Direction: 180°S
Pressure: 30.19"   Gusts: NA
Location:  48.7531°N, 122.502°W
Report Text: KBLI 250953Z AUTO 18003KT 10SM OVC032 12/11 A3019 RMK AO2 SLP231 T01170106 $
Loading
Personal Weather Stations






























Interactive Weather Map New forecast layout! Learn more

10-Day Weather Forecast

Advertisements
Track Severe Weather on mobile